Time;durP1;ratioP1;P1;durP2;ratioP2;P2;SDS_P1;SDS_P2;PMS_P1;PMS_P2;Temp;Humidity;BMP_temperature;BMP_pressure;BME280_temperature;BME280_humidity;BME280_pressure;Samples;Min_cycle;Max_cycle;Signal;HPM_P1;HPM_P2
2023/05/08 00:01:35;;;;;;;;;12.25;12.00;;;;;15.56;78.28;101438.84;5073468;27;46003;-74
2023/05/08 00:07:22;;;;;;;;;14.50;12.50;;;;;15.52;77.90;101429.50;5073288;28;45713;-75
2023/05/08 00:09:48;;;;;;;;;13.25;12.75;;;;;15.45;77.71;101431.72;5073436;27;45956;-75
2023/05/08 00:12:13;;;;;;;;;13.75;13.00;;;;;15.36;77.71;101445.66;5073205;27;46470;-76
2023/05/08 00:14:38;;;;;;;;;13.75;13.25;;;;;15.29;78.13;101439.16;5073740;27;45551;-75
2023/05/08 00:17:04;;;;;;;;;12.50;11.00;;;;;15.23;78.12;101437.00;5073179;27;46451;-74
2023/05/08 00:19:29;;;;;;;;;15.00;13.25;;;;;15.19;78.26;101434.72;5073477;28;45643;-74
2023/05/08 00:21:55;;;;;;;;;14.00;12.50;;;;;15.16;78.01;101441.09;5073510;27;45566;-76
2023/05/08 00:24:20;;;;;;;;;7.00;6.50;;;;;15.18;78.60;101440.94;5073569;27;45458;-75
2023/05/08 00:26:45;;;;;;;;;16.00;13.75;;;;;15.21;78.55;101444.22;5073152;27;46330;-75
2023/05/08 00:29:11;;;;;;;;;13.75;13.00;;;;;15.22;78.54;101429.22;5076253;27;45947;-75
2023/05/08 00:31:36;;;;;;;;;13.50;11.75;;;;;15.23;78.26;101434.34;5077010;27;45891;-75
2023/05/08 00:37:23;;;;;;;;;17.25;13.75;;;;;15.16;78.55;101419.13;5076315;28;46029;-76
2023/05/08 00:39:48;;;;;;;;;12.00;11.25;;;;;15.14;78.53;101421.88;5076572;27;45992;-75
2023/05/08 00:42:14;;;;;;;;;13.25;12.00;;;;;15.18;78.64;101425.09;5077042;27;45580;-76
2023/05/08 00:44:40;;;;;;;;;13.75;11.00;;;;;15.18;78.78;101419.81;5076602;27;45712;-73
2023/05/08 00:47:07;;;;;;;;;13.25;12.00;;;;;15.13;78.33;101421.03;5076594;27;45533;-73
2023/05/08 00:52:55;;;;;;;;;8.75;6.75;;;;;15.00;78.38;101414.19;5066536;28;45812;-74
2023/05/08 00:55:21;;;;;;;;;12.00;12.00;;;;;14.97;78.62;101427.59;5076690;27;45467;-74
2023/05/08 00:57:47;;;;;;;;;11.50;11.50;;;;;14.94;78.48;101423.41;5076383;27;46436;-74
2023/05/08 01:00:16;;;;;;;;;13.75;13.25;;;;;14.91;78.65;101420.16;5076209;27;46566;-73
2023/05/08 01:02:42;;;;;;;;;13.25;12.75;;;;;14.88;78.47;101413.31;5091850;27;45563;-74
2023/05/08 01:05:08;;;;;;;;;13.00;12.25;;;;;14.80;78.83;101410.41;5076314;27;45525;-74
2023/05/08 01:07:33;;;;;;;;;12.25;11.25;;;;;14.81;78.67;101416.53;5091745;27;47348;-75
2023/05/08 01:09:58;;;;;;;;;12.50;12.25;;;;;14.76;78.65;101413.41;5076061;27;47162;-72
2023/05/08 01:12:45;;;;;;;;;14.75;13.00;;;;;14.74;78.85;101405.59;5076211;27;45690;-74
2023/05/08 01:15:16;;;;;;;;;12.75;11.25;;;;;14.70;79.21;101415.56;5076037;27;45924;-74
2023/05/08 01:18:01;;;;;;;;;12.00;11.50;;;;;14.74;79.29;101413.50;5075807;27;47556;-74
2023/05/08 01:20:48;;;;;;;;;19.75;14.00;;;;;14.78;79.37;101419.41;5076255;28;46097;-74
2023/05/08 01:23:41;;;;;;;;;12.00;11.75;;;;;14.81;79.27;101424.44;5074736;28;45561;-73
2023/05/08 01:26:16;;;;;;;;;16.75;14.25;;;;;14.79;78.53;101429.03;5076058;28;45640;-74
2023/05/08 01:29:03;;;;;;;;;12.75;12.75;;;;;14.70;78.60;101436.66;5075934;28;46705;-73
2023/05/08 01:31:47;;;;;;;;;15.25;15.25;;;;;14.67;79.12;101434.25;5075987;28;46349;-73
2023/05/08 01:34:31;;;;;;;;;18.75;16.50;;;;;14.70;78.85;101431.38;5075784;28;45798;-74
2023/05/08 01:37:01;;;;;;;;;12.00;12.00;;;;;14.65;79.06;101425.59;5076105;27;45491;-74
2023/05/08 01:39:38;;;;;;;;;19.50;15.50;;;;;14.56;79.06;101430.75;5074583;27;45612;-73
2023/05/08 01:42:13;;;;;;;;;16.75;15.50;;;;;14.50;79.37;101418.00;5075833;27;46364;-74
2023/05/08 01:44:46;;;;;;;;;17.00;12.50;;;;;14.47;79.39;101426.97;5075487;27;45789;-75
2023/05/08 01:47:14;;;;;;;;;14.50;12.00;;;;;14.45;79.78;101425.41;5075655;27;45550;-74
2023/05/08 01:49:49;;;;;;;;;17.25;16.25;;;;;14.44;79.83;101429.84;5075523;27;45671;-74
2023/05/08 01:52:21;;;;;;;;;18.25;13.50;;;;;14.45;79.93;101430.69;5075239;27;46996;-74
2023/05/08 01:54:56;;;;;;;;;16.25;15.00;;;;;14.42;79.57;101429.09;5075398;27;45807;-74
2023/05/08 01:57:27;;;;;;;;;17.00;16.00;;;;;14.39;79.39;101425.88;5075735;27;45726;-72
2023/05/08 01:59:54;;;;;;;;;19.00;17.00;;;;;14.34;79.82;101431.44;5075229;27;47483;-74
2023/05/08 02:02:21;;;;;;;;;14.75;13.00;;;;;14.32;80.39;101429.88;5075371;28;45504;-74
2023/05/08 02:04:49;;;;;;;;;26.75;17.25;;;;;14.33;80.21;101426.28;5075020;27;45621;-74
2023/05/08 02:07:14;;;;;;;;;17.75;16.25;;;;;14.33;80.02;101429.75;5075717;27;45744;-73
2023/05/08 02:09:43;;;;;;;;;18.75;16.25;;;;;14.35;80.48;101435.78;5075111;27;47490;-72
2023/05/08 02:12:09;;;;;;;;;17.00;16.00;;;;;14.34;80.13;101434.09;5074936;27;46159;-74
2023/05/08 02:14:36;;;;;;;;;18.75;17.00;;;;;14.37;80.34;101431.25;5075309;28;45532;-74
2023/05/08 02:17:04;;;;;;;;;19.25;17.00;;;;;14.36;80.06;101442.69;5075379;27;45845;-73
2023/05/08 02:19:30;;;;;;;;;19.00;17.00;;;;;14.33;79.98;101440.31;5075061;28;46355;-73
2023/05/08 02:21:58;;;;;;;;;20.25;18.25;;;;;14.27;80.30;101438.97;5075081;27;46371;-74
2023/05/08 02:24:25;;;;;;;;;18.00;16.25;;;;;14.25;80.51;101446.13;5075163;27;45804;-75
2023/05/08 02:26:53;;;;;;;;;19.25;17.75;;;;;14.27;80.64;101432.84;5090803;27;45507;-75
2023/05/08 02:29:20;;;;;;;;;19.75;18.00;;;;;14.30;80.16;101451.91;5074721;27;46739;-72
2023/05/08 02:31:46;;;;;;;;;22.50;18.75;;;;;14.29;80.18;101447.59;5074933;27;46297;-73
2023/05/08 02:34:12;;;;;;;;;23.50;20.00;;;;;14.27;80.67;101441.59;5074407;27;45770;-73
2023/05/08 02:36:38;;;;;;;;;25.50;19.00;;;;;14.26;80.20;101439.91;5074623;27;45844;-73
2023/05/08 02:39:04;;;;;;;;;20.00;19.50;;;;;14.21;79.94;101447.31;5074995;27;45667;-73
2023/05/08 02:41:32;;;;;;;;;23.25;20.00;;;;;14.12;80.15;101445.34;5090152;27;47093;-73
2023/05/08 02:43:58;;;;;;;;;18.75;18.00;;;;;14.02;80.49;101441.69;5074870;28;45674;-72
2023/05/08 02:46:47;;;;;;;;;24.50;21.50;;;;;13.97;81.18;101449.09;5074862;28;45570;-73
2023/05/08 02:49:52;;;;;;;;;23.00;21.25;;;;;13.96;81.00;101449.19;5074332;27;47714;-72
2023/05/08 02:52:29;;;;;;;;;18.25;16.00;;;;;13.90;80.76;101463.66;5011431;28;47428;-74
2023/05/08 02:55:26;;;;;;;;;22.75;20.00;;;;;13.80;80.90;101447.66;5012073;28;45887;-73
2023/05/08 02:58:15;;;;;;;;;25.75;19.00;;;;;13.77;81.46;101444.38;5012043;28;45725;-73
2023/05/08 03:00:51;;;;;;;;;31.50;26.50;;;;;13.81;81.21;101440.59;5011995;28;45723;-74
2023/05/08 03:03:23;;;;;;;;;24.50;23.50;;;;;13.87;81.41;101441.00;5011882;28;46416;-73
2023/05/08 03:06:01;;;;;;;;;26.25;25.00;;;;;13.81;81.08;101437.97;5011671;28;46478;-72
2023/05/08 03:08:34;;;;;;;;;34.00;27.00;;;;;13.70;81.53;101435.25;5011954;28;45555;-73
2023/05/08 03:11:03;;;;;;;;;29.00;24.75;;;;;13.69;81.66;101444.09;5011649;28;46613;-72
2023/05/08 03:13:33;;;;;;;;;26.75;23.25;;;;;13.65;81.69;101432.97;5011780;28;46040;-74
2023/05/08 03:16:01;;;;;;;;;25.75;22.75;;;;;13.65;81.62;101434.75;5012105;28;45861;-74
2023/05/08 03:18:35;;;;;;;;;24.00;21.00;;;;;13.65;81.33;101434.75;5011892;28;45533;-73
2023/05/08 03:21:01;;;;;;;;;24.00;20.25;;;;;13.59;81.73;101432.53;5011842;28;45693;-73
2023/05/08 03:23:29;;;;;;;;;22.00;21.00;;;;;13.58;81.90;101430.84;5011883;28;46392;-73
2023/05/08 03:25:57;;;;;;;;;22.50;22.50;;;;;13.55;81.83;101428.44;5035480;28;45649;-73
2023/05/08 03:28:23;;;;;;;;;23.25;19.75;;;;;13.46;81.94;101437.81;5074094;27;45571;-73
2023/05/08 03:30:51;;;;;;;;;23.00;18.25;;;;;13.40;82.13;101441.72;5073861;27;47258;-73
2023/05/08 03:33:18;;;;;;;;;23.25;21.25;;;;;13.38;81.94;101445.41;5073654;27;46158;-73
2023/05/08 03:35:45;;;;;;;;;32.00;26.00;;;;;13.36;82.37;101429.72;5074130;28;45900;-72
2023/05/08 03:38:11;;;;;;;;;27.25;22.50;;;;;13.39;82.65;101429.50;5073975;27;45832;-74
2023/05/08 03:40:37;;;;;;;;;25.25;21.25;;;;;13.35;81.99;101438.56;5073879;27;45813;-75
2023/05/08 03:43:06;;;;;;;;;28.75;24.50;;;;;13.31;82.47;101434.47;5073730;27;46535;-74
2023/05/08 03:45:34;;;;;;;;;26.50;24.00;;;;;13.31;82.75;101429.19;5073673;27;45656;-74
2023/05/08 03:48:02;;;;;;;;;26.25;23.00;;;;;13.31;82.62;101429.19;5074048;28;45582;-73
2023/05/08 03:50:28;;;;;;;;;31.00;24.25;;;;;13.33;82.77;101429.91;5073470;27;47844;-73
2023/05/08 03:52:54;;;;;;;;;33.00;26.75;;;;;13.38;82.44;101432.25;5073608;28;46080;-74
2023/05/08 03:55:20;;;;;;;;;29.50;27.75;;;;;13.34;82.60;101430.75;5073572;27;45588;-74
2023/05/08 03:58:25;;;;;;;;;26.25;23.50;;;;;13.36;81.90;101445.50;5073713;27;45841;-74
2023/05/08 04:01:02;;;;;;;;;25.50;23.25;;;;;13.30;82.41;101443.31;5064674;28;46665;-73
2023/05/08 04:03:46;;;;;;;;;24.75;21.75;;;;;13.26;81.98;101433.09;5075380;27;46360;-72
2023/05/08 04:06:21;;;;;;;;;33.25;23.50;;;;;13.21;81.95;101430.78;5076878;28;46004;-73
2023/05/08 04:09:01;;;;;;;;;28.00;24.50;;;;;13.15;82.51;101441.72;5077209;27;45689;-72
2023/05/08 04:11:55;;;;;;;;;31.50;26.25;;;;;13.12;82.35;101431.41;5077141;27;46458;-72
2023/05/08 04:14:24;;;;;;;;;26.75;22.50;;;;;13.09;82.60;101433.38;5076802;27;47230;-73
2023/05/08 04:16:52;;;;;;;;;30.50;26.00;;;;;13.06;82.61;101420.44;5076961;27;45722;-73
2023/05/08 04:22:41;;;;;;;;;23.75;21.75;;;;;13.23;82.92;101423.63;5076892;28;46046;-75
2023/05/08 04:25:08;;;;;;;;;27.50;22.00;;;;;13.26;82.24;101425.22;5076972;27;46169;-73
2023/05/08 04:27:34;;;;;;;;;29.50;22.75;;;;;13.27;82.32;101419.00;5077024;27;45541;-74
2023/05/08 04:30:00;;;;;;;;;31.00;27.50;;;;;13.26;82.12;101420.78;5076929;27;45572;-72
2023/05/08 04:32:27;;;;;;;;;27.25;23.00;;;;;13.30;82.15;101422.25;5076704;27;46968;-73
2023/05/08 04:38:14;;;;;;;;;24.75;19.50;;;;;13.45;82.28;101423.81;5076553;28;45920;-72
2023/05/08 04:40:39;;;;;;;;;27.75;26.00;;;;;13.51;81.79;101426.97;5076702;27;45650;-72
2023/05/08 04:43:05;;;;;;;;;26.75;23.00;;;;;13.55;81.33;101425.81;5076385;27;46252;-73
2023/05/08 04:45:30;;;;;;;;;25.50;21.25;;;;;13.58;81.57;101425.59;5076791;27;46062;-74
2023/05/08 04:47:55;;;;;;;;;25.75;23.50;;;;;13.63;81.52;101426.09;5076305;27;45609;-73
2023/05/08 04:53:42;;;;;;;;;20.00;19.25;;;;;13.70;81.34;101436.09;5067378;28;45693;-74
2023/05/08 04:56:07;;;;;;;;;23.75;19.25;;;;;13.74;81.15;101434.94;5076474;27;45616;-74
2023/05/08 04:58:33;;;;;;;;;26.25;23.50;;;;;13.78;81.05;101425.00;5076341;27;45640;-75
2023/05/08 05:01:03;;;;;;;;;23.75;20.75;;;;;13.81;81.10;101435.34;5076300;27;45843;-73
2023/05/08 05:03:28;;;;;;;;;27.25;22.50;;;;;13.81;80.54;101443.25;5076164;27;46635;-73
2023/05/08 05:09:15;;;;;;;;;25.75;22.75;;;;;13.80;80.72;101431.88;5076272;28;45876;-72
2023/05/08 05:11:40;;;;;;;;;30.00;23.50;;;;;13.72;80.33;101439.44;5076121;27;45504;-75
2023/05/08 05:14:06;;;;;;;;;19.75;18.50;;;;;13.69;80.71;101447.59;5075496;27;47468;-75
2023/05/08 05:16:32;;;;;;;;;21.75;20.75;;;;;13.68;80.75;101447.69;5076235;27;45596;-75
2023/05/08 05:18:57;;;;;;;;;20.50;19.25;;;;;13.69;80.31;101457.28;5076082;27;45597;-74
2023/05/08 05:21:23;;;;;;;;;21.25;17.75;;;;;13.69;80.61;101465.19;5076326;27;45753;-76
2023/05/08 05:23:48;;;;;;;;;21.25;19.25;;;;;13.68;80.25;101466.13;5074392;28;46646;-73
2023/05/08 05:26:13;;;;;;;;;21.50;18.25;;;;;13.69;81.03;101466.00;5075662;27;47202;-74
2023/05/08 05:28:39;;;;;;;;;27.00;20.00;;;;;13.73;80.62;101475.38;5076126;27;45580;-74
2023/05/08 05:31:04;;;;;;;;;24.50;21.50;;;;;13.69;80.07;101473.06;5075867;27;45677;-74
2023/05/08 05:33:29;;;;;;;;;24.25;21.00;;;;;13.68;80.67;101474.88;5075806;27;45524;-74
2023/05/08 05:35:55;;;;;;;;;17.00;15.75;;;;;13.66;80.27;101471.47;5075870;27;46455;-74
2023/05/08 05:38:20;;;;;;;;;19.00;17.25;;;;;13.70;80.59;101482.66;5075629;27;45744;-73
2023/05/08 05:40:46;;;;;;;;;21.75;17.50;;;;;13.76;80.48;101488.34;5076099;27;45541;-73
2023/05/08 05:43:11;;;;;;;;;20.50;18.00;;;;;13.81;80.53;101482.75;5075443;27;46315;-74
2023/05/08 05:45:37;;;;;;;;;18.25;17.00;;;;;13.86;80.30;101481.47;5075462;27;46969;-76
2023/05/08 05:48:03;;;;;;;;;17.25;15.00;;;;;13.93;80.61;101483.69;5075555;27;45743;-73
2023/05/08 05:50:29;;;;;;;;;22.25;19.00;;;;;13.97;80.51;101479.88;5075662;27;45580;-71
2023/05/08 05:52:54;;;;;;;;;16.25;15.75;;;;;14.01;80.04;101479.53;5075437;27;46593;-73
2023/05/08 05:55:19;;;;;;;;;19.25;17.00;;;;;14.06;79.61;101480.06;5075847;27;46591;-73
2023/05/08 05:57:45;;;;;;;;;15.50;13.50;;;;;14.04;79.42;101487.22;5075662;28;45672;-72
2023/05/08 06:00:11;;;;;;;;;16.00;15.75;;;;;13.97;79.70;101485.13;5075462;27;45488;-72
2023/05/08 06:02:36;;;;;;;;;15.25;13.50;;;;;13.93;79.31;101492.41;5075380;27;47346;-72
2023/05/08 06:05:02;;;;;;;;;18.75;17.00;;;;;13.91;79.24;101499.59;5075496;28;45886;-73
2023/05/08 06:10:49;;;;;;;;;17.00;15.50;;;;;13.74;79.65;101511.31;5075340;28;45536;-72
2023/05/08 06:13:15;;;;;;;;;16.75;14.50;;;;;13.78;79.89;101509.28;5075355;27;46424;-72
2023/05/08 06:15:40;;;;;;;;;9.00;8.00;;;;;13.81;79.81;101509.94;5073829;28;47135;-72
2023/05/08 06:18:05;;;;;;;;;15.25;14.25;;;;;13.87;80.30;101513.94;5075208;27;45615;-73
2023/05/08 06:20:30;;;;;;;;;18.75;17.75;;;;;13.96;80.14;101510.63;5075266;27;45502;-74
2023/05/08 06:22:56;;;;;;;;;18.25;17.75;;;;;14.00;79.81;101509.47;5075265;27;45483;-74
2023/05/08 06:25:21;;;;;;;;;17.75;16.75;;;;;13.99;79.84;101510.41;5074486;27;45759;-75
2023/05/08 06:27:46;;;;;;;;;18.25;15.75;;;;;13.97;79.45;101516.75;5075277;27;45467;-73
2023/05/08 06:30:12;;;;;;;;;17.00;15.50;;;;;13.92;79.92;101514.44;5075009;27;45560;-73
2023/05/08 06:32:37;;;;;;;;;20.75;17.00;;;;;13.91;80.09;101512.75;5075025;28;45889;-73
2023/05/08 06:35:03;;;;;;;;;16.25;15.25;;;;;13.90;80.14;101518.97;5075005;27;46227;-75
2023/05/08 06:40:50;;;;;;;;;18.75;17.00;;;;;13.87;79.95;101514.75;5074802;28;45669;-74
2023/05/08 06:43:16;;;;;;;;;18.75;15.50;;;;;13.92;80.02;101522.34;5073123;28;47308;-74
2023/05/08 06:45:43;;;;;;;;;21.50;16.50;;;;;13.93;80.25;101510.03;5090164;27;46871;-73
2023/05/08 06:48:08;;;;;;;;;14.50;12.75;;;;;14.00;79.74;101508.63;5074684;27;45556;-76
2023/05/08 06:50:36;;;;;;;;;16.25;15.00;;;;;14.01;79.67;101505.88;5074889;27;45629;-75
2023/05/08 06:57:03;;;;;;;;;15.50;12.50;;;;;14.12;79.48;101524.41;5070219;28;46098;-74
2023/05/08 06:59:28;;;;;;;;;14.00;12.00;;;;;14.12;79.46;101528.84;5074610;27;45642;-75
2023/05/08 07:01:54;;;;;;;;;15.25;13.25;;;;;14.14;79.12;101529.59;5074813;27;45578;-75
2023/05/08 07:04:19;;;;;;;;;13.50;10.75;;;;;14.12;79.01;101532.31;5074596;27;46361;-73
2023/05/08 07:06:45;;;;;;;;;15.75;13.00;;;;;14.09;79.29;101535.16;5074432;27;46020;-75
2023/05/08 07:09:10;;;;;;;;;13.50;11.00;;;;;14.03;78.81;101530.34;5074572;27;45588;-74
2023/05/08 07:11:35;;;;;;;;;12.00;10.25;;;;;14.01;78.93;101534.88;5074347;27;45788;-74
2023/05/08 07:14:01;;;;;;;;;15.00;13.00;;;;;14.02;79.16;101541.00;5074286;27;45600;-75
2023/05/08 07:16:26;;;;;;;;;13.75;13.75;;;;;14.04;79.13;101547.81;5074247;27;45758;-73
2023/05/08 07:18:52;;;;;;;;;15.00;11.25;;;;;13.98;78.60;101544.78;5074194;27;45742;-75
2023/05/08 07:21:19;;;;;;;;;15.00;11.50;;;;;13.92;78.52;101547.84;5074508;27;45684;-74
2023/05/08 07:23:44;;;;;;;;;15.25;14.00;;;;;13.91;78.93;101554.91;5073904;27;46481;-75
2023/05/08 07:26:10;;;;;;;;;10.50;10.00;;;;;13.86;78.89;101549.97;5074038;28;45616;-73
2023/05/08 07:28:35;;;;;;;;;15.25;12.75;;;;;13.87;78.93;101551.63;5073922;27;45751;-73
2023/05/08 07:31:04;;;;;;;;;14.00;12.50;;;;;13.90;78.99;101550.59;5074381;27;45602;-74
2023/05/08 07:33:30;;;;;;;;;15.50;12.00;;;;;13.93;78.77;101554.81;5074089;27;46398;-74
2023/05/08 07:35:55;;;;;;;;;18.50;14.00;;;;;13.97;78.51;101551.00;5073745;27;46531;-74
2023/05/08 07:41:42;;;;;;;;;14.25;12.75;;;;;14.06;78.33;101561.75;5073889;28;45685;-72
2023/05/08 07:44:08;;;;;;;;;15.50;12.25;;;;;14.13;78.19;101563.00;5073576;27;46376;-73
2023/05/08 07:46:33;;;;;;;;;13.50;12.50;;;;;14.17;78.26;101569.72;5073598;27;46162;-72
2023/05/08 07:48:59;;;;;;;;;17.25;13.50;;;;;14.24;78.67;101563.09;5072966;28;45690;-71
2023/05/08 07:51:25;;;;;;;;;11.50;11.00;;;;;14.29;78.26;101563.59;5074029;27;45482;-72
2023/05/08 07:53:50;;;;;;;;;14.25;13.50;;;;;14.37;78.26;101564.84;5073727;27;46212;-73
2023/05/08 07:56:15;;;;;;;;;12.00;11.00;;;;;14.43;77.65;101560.00;5073649;27;45984;-73
2023/05/08 07:58:41;;;;;;;;;15.00;12.00;;;;;14.50;77.54;101561.25;5073913;27;45689;-74
2023/05/08 08:01:07;;;;;;;;;12.50;10.75;;;;;14.57;77.59;101559.84;5073979;27;45683;-74
2023/05/08 08:03:32;;;;;;;;;13.75;12.00;;;;;14.63;77.67;101575.22;5073380;27;47410;-75
2023/05/08 08:05:57;;;;;;;;;14.00;11.75;;;;;14.67;76.97;101573.22;5073680;27;45903;-74
2023/05/08 08:11:44;;;;;;;;;13.00;12.00;;;;;14.69;76.87;101568.66;5073653;28;45727;-75
2023/05/08 08:14:10;;;;;;;;;15.75;13.75;;;;;14.75;77.08;101573.47;5073404;27;46692;-74
2023/05/08 08:16:35;;;;;;;;;12.25;12.25;;;;;14.79;76.60;101582.84;5073316;27;46340;-73
2023/05/08 08:19:01;;;;;;;;;14.25;12.75;;;;;14.80;76.83;101578.41;5073355;27;45601;-73
2023/05/08 08:21:28;;;;;;;;;11.00;10.50;;;;;14.85;76.67;101578.91;5073422;27;45839;-73
2023/05/08 08:27:15;;;;;;;;;15.00;12.75;;;;;14.97;76.58;101570.09;5073012;28;45529;-74
2023/05/08 08:29:40;;;;;;;;;11.50;9.75;;;;;15.00;76.02;101568.09;5073200;27;45673;-75
2023/05/08 08:32:06;;;;;;;;;12.00;11.25;;;;;15.04;76.02;101581.91;5073293;27;45879;-75
2023/05/08 08:34:34;;;;;;;;;9.75;8.75;;;;;15.06;76.06;101575.53;5072864;27;47282;-76
2023/05/08 08:37:00;;;;;;;;;12.50;11.75;;;;;15.07;76.03;101573.75;5073285;27;45610;-74
2023/05/08 08:39:25;;;;;;;;;10.00;9.25;;;;;15.15;75.92;101583.75;5073317;27;46040;-74
2023/05/08 08:41:50;;;;;;;;;10.50;10.00;;;;;15.15;75.59;101583.75;5073452;27;45458;-72
2023/05/08 08:44:16;;;;;;;;;13.00;11.25;;;;;15.13;75.34;101571.50;5073231;27;45816;-76
2023/05/08 08:46:50;;;;;;;;;11.25;11.00;;;;;15.13;76.07;101582.06;5072815;27;47127;-74
2023/05/08 08:49:18;;;;;;;;;13.25;12.00;;;;;15.22;75.40;101575.25;5074527;27;45817;-76
2023/05/08 08:51:52;;;;;;;;;12.00;10.75;;;;;15.27;75.28;101588.09;5076613;27;45632;-74
2023/05/08 08:57:51;;;;;;;;;13.75;12.00;;;;;15.35;75.29;101575.16;5066279;28;46707;-75
2023/05/08 09:00:19;;;;;;;;;12.25;10.75;;;;;15.39;74.82;101576.59;5076662;27;45565;-74
2023/05/08 09:02:45;;;;;;;;;12.25;12.00;;;;;15.36;75.35;101582.97;5076425;27;45599;-75
2023/05/08 09:05:11;;;;;;;;;11.00;9.25;;;;;15.40;74.88;101579.13;5076491;27;45887;-74
2023/05/08 09:07:37;;;;;;;;;13.75;12.25;;;;;15.43;75.15;101584.19;5075851;27;46602;-74
2023/05/08 09:10:06;;;;;;;;;11.00;10.50;;;;;15.43;74.76;101593.91;5076296;27;45835;-74
2023/05/08 09:12:31;;;;;;;;;12.00;11.00;;;;;15.41;74.92;101594.03;5076731;27;45530;-74
2023/05/08 09:14:56;;;;;;;;;11.50;10.00;;;;;15.44;74.91;101585.84;5076203;27;45505;-75
2023/05/08 09:17:22;;;;;;;;;11.75;10.50;;;;;15.46;74.91;101588.41;5076337;27;46095;-74
2023/05/08 09:19:48;;;;;;;;;11.00;10.00;;;;;15.46;74.63;101585.75;5076302;27;45714;-74
2023/05/08 09:22:14;;;;;;;;;16.75;11.75;;;;;15.42;74.94;101587.78;5076495;27;45683;-73
2023/05/08 09:24:56;;;;;;;;;9.50;9.00;;;;;15.42;75.17;101589.59;5075673;27;47298;-75
2023/05/08 09:27:26;;;;;;;;;10.25;9.50;;;;;15.42;74.93;101584.31;5076066;27;46061;-75
2023/05/08 09:29:59;;;;;;;;;10.75;10.00;;;;;15.40;74.53;101599.41;5076228;27;45716;-75
2023/05/08 09:32:24;;;;;;;;;11.00;9.00;;;;;15.37;74.37;101592.59;5076053;27;45521;-75
2023/05/08 09:34:53;;;;;;;;;12.50;12.00;;;;;15.37;74.71;101592.59;5091409;27;46528;-75
2023/05/08 09:37:19;;;;;;;;;11.50;10.75;;;;;15.43;74.31;101583.34;5075952;27;45996;-75
2023/05/08 09:43:12;;;;;;;;;11.00;10.75;;;;;15.58;74.34;101570.81;5075853;28;45654;-74
2023/05/08 09:45:38;;;;;;;;;12.00;10.50;;;;;15.66;74.44;101563.97;5075539;27;46361;-75
2023/05/08 09:48:05;;;;;;;;;13.00;11.75;;;;;15.69;74.07;101563.75;5075574;27;46240;-74
2023/05/08 09:50:31;;;;;;;;;11.00;11.00;;;;;15.72;74.28;101578.50;5075629;27;45591;-75
2023/05/08 09:52:57;;;;;;;;;14.25;11.75;;;;;15.77;74.27;101568.41;5075730;27;45672;-73
2023/05/08 09:55:23;;;;;;;;;11.00;9.50;;;;;15.80;74.03;101568.19;5075267;27;46218;-77
2023/05/08 09:57:58;;;;;;;;;13.00;11.25;;;;;15.85;73.78;101558.94;5075321;27;45564;-76
2023/05/08 10:00:26;;;;;;;;;5.50;5.25;;;;;15.91;73.95;101550.56;5074216;27;45703;-76
2023/05/08 10:02:59;;;;;;;;;8.00;7.75;;;;;15.99;73.89;101543.78;5075472;27;45874;-76
2023/05/08 10:05:31;;;;;;;;;9.75;8.25;;;;;16.07;73.82;101547.53;5075440;28;46809;-77
2023/05/08 10:08:19;;;;;;;;;9.25;8.50;;;;;16.16;73.34;101549.44;5075225;27;46366;-73
2023/05/08 10:10:44;;;;;;;;;6.50;6.50;;;;;16.21;72.51;101541.13;5075131;28;45578;-74
2023/05/08 10:13:10;;;;;;;;;8.00;7.50;;;;;16.24;72.93;101541.75;5075221;27;45605;-75
2023/05/08 10:15:37;;;;;;;;;7.50;6.50;;;;;16.32;72.92;101539.31;5090807;27;46669;-73
2023/05/08 10:18:05;;;;;;;;;8.75;7.75;;;;;16.44;72.59;101537.50;5075086;27;46153;-75
2023/05/08 10:20:31;;;;;;;;;12.75;10.25;;;;;16.53;72.17;101534.09;5075369;27;45692;-74
2023/05/08 10:22:57;;;;;;;;;11.00;10.75;;;;;16.59;71.49;101533.63;5075122;27;45659;-76
2023/05/08 10:25:29;;;;;;;;;9.50;9.00;;;;;16.63;71.03;101534.22;5075152;28;46566;-75
2023/05/08 10:28:17;;;;;;;;;7.75;7.00;;;;;16.72;71.79;101534.31;5075369;27;46251;-76
2023/05/08 10:30:47;;;;;;;;;8.75;7.50;;;;;16.79;71.43;101530.19;5074955;27;45463;-73
2023/05/08 10:33:15;;;;;;;;;8.00;7.00;;;;;16.89;71.28;101530.28;5075084;27;45724;-74
2023/05/08 10:35:41;;;;;;;;;8.00;8.00;;;;;16.98;70.27;101524.22;5074661;27;47857;-75
2023/05/08 10:38:10;;;;;;;;;6.50;6.50;;;;;17.07;70.51;101515.50;5074717;27;47078;-74
2023/05/08 10:40:36;;;;;;;;;9.50;7.25;;;;;17.22;70.32;101523.97;5074893;27;45521;-77
2023/05/08 10:43:05;;;;;;;;;13.00;10.50;;;;;17.38;70.55;101516.41;5074922;27;45480;-75
2023/05/08 10:45:32;;;;;;;;;8.00;6.50;;;;;17.55;70.11;101518.44;5074558;27;46374;-73
2023/05/08 10:48:43;;;;;;;;;7.50;7.25;;;;;17.75;69.88;101511.47;5074607;27;46407;-76
2023/05/08 10:51:26;;;;;;;;;8.25;7.00;;;;;17.92;69.31;101513.47;5074853;27;45819;-75
2023/05/08 10:53:58;;;;;;;;;9.00;8.50;;;;;18.07;69.92;101513.97;5074829;27;45713;-76
2023/05/08 10:56:28;;;;;;;;;9.75;8.25;;;;;18.19;68.88;101510.22;5074068;27;46645;-77
2023/05/08 10:58:58;;;;;;;;;8.25;7.00;;;;;18.30;68.72;101509.28;5074738;27;46272;-75
2023/05/08 11:01:24;;;;;;;;;8.25;7.00;;;;;18.42;68.88;101506.34;5074742;28;45780;-75
2023/05/08 11:03:50;;;;;;;;;7.50;6.75;;;;;18.54;68.58;101496.47;5090157;27;45575;-76
2023/05/08 11:06:16;;;;;;;;;7.50;7.25;;;;;18.66;68.37;101492.72;5074631;27;45583;-74
2023/05/08 11:08:47;;;;;;;;;10.75;9.25;;;;;18.75;68.02;101491.03;5073992;27;46405;-75
2023/05/08 11:11:32;;;;;;;;;8.00;7.00;;;;;18.82;67.36;101474.41;5074089;27;45677;-74
2023/05/08 11:14:10;;;;;;;;;10.00;9.50;;;;;18.90;67.47;101481.66;5090059;27;45537;-75
2023/05/08 11:16:53;;;;;;;;;7.00;6.50;;;;;19.02;67.99;101472.56;5074087;27;46807;-75
2023/05/08 11:19:21;;;;;;;;;10.25;7.25;;;;;19.14;67.65;101475.91;5074386;27;46652;-75
2023/05/08 11:22:28;;;;;;;;;8.25;7.00;;;;;19.25;66.70;101468.59;5074543;28;45669;-76
2023/05/08 11:25:03;;;;;;;;;9.00;7.00;;;;;19.29;65.80;101471.81;5074325;28;45565;-76
2023/05/08 11:27:59;;;;;;;;;9.50;9.00;;;;;19.25;65.87;101465.09;5073961;27;46943;-76
2023/05/08 11:30:31;;;;;;;;;7.00;7.00;;;;;19.29;65.55;101463.84;5063005;27;46394;-77
2023/05/08 11:33:02;;;;;;;;;11.00;10.50;;;;;19.33;64.83;101457.22;5074135;28;45611;-76
2023/05/08 11:35:58;;;;;;;;;7.75;7.75;;;;;19.34;65.26;101450.94;5074395;27;45686;-77
2023/05/08 11:41:24;;;;;;;;;9.00;7.50;;;;;19.34;64.77;101445.63;5073819;28;45948;-75
2023/05/08 11:44:03;;;;;;;;;6.50;6.00;;;;;19.30;64.37;101444.25;5074069;27;45692;-75
2023/05/08 11:46:38;;;;;;;;;8.00;6.50;;;;;19.28;65.12;101435.56;5073872;27;45611;-73
2023/05/08 11:49:04;;;;;;;;;7.00;6.00;;;;;19.33;65.14;101425.34;5072405;28;48439;-75
2023/05/08 11:51:31;;;;;;;;;7.00;6.00;;;;;19.45;65.50;101415.41;5073930;27;45951;-73
2023/05/08 11:57:19;;;;;;;;;9.25;7.00;;;;;19.55;64.40;101417.03;5073490;28;45544;-76
2023/05/08 11:59:49;;;;;;;;;7.50;7.50;;;;;19.60;63.81;101411.28;5073725;27;46418;-73
2023/05/08 12:02:15;;;;;;;;;9.00;7.50;;;;;19.62;64.25;101410.16;5073886;27;45561;-75
2023/05/08 12:04:45;;;;;;;;;7.00;5.25;;;;;19.67;64.59;101394.59;5073718;27;45751;-77
2023/05/08 12:07:10;;;;;;;;;8.25;6.00;;;;;19.74;63.94;101401.97;5073817;28;45585;-77
2023/05/08 12:12:57;;;;;;;;;6.75;6.00;;;;;19.89;64.15;101398.66;5073301;28;45935;-77
2023/05/08 12:15:23;;;;;;;;;7.25;7.00;;;;;20.01;63.92;101396.63;5089072;27;45607;-77
2023/05/08 12:18:01;;;;;;;;;7.00;7.00;;;;;20.05;63.88;101398.00;5073694;27;45775;-77
2023/05/08 12:20:26;;;;;;;;;5.75;5.00;;;;;20.05;63.40;101390.84;5073072;27;45816;-76
2023/05/08 12:22:52;;;;;;;;;8.25;6.75;;;;;20.04;63.27;101389.16;5073416;28;45494;-75